チタ の空港の天気 - METARとTAF

チタ・カダラ空港 ( UIAA / HTA ) - ロシア チタ
飛行場実況気象(Metar)
観測時間09/21 22:30 YAKT (09/21 13:30 UTC)
風向・風速北 7m/s
視程10km以上
天気現象
全天の4割程度の雲 雲底高度 1220m
気温9℃
湿度71%
気圧990hPa
METARUIAA 211330Z 35007MPS 9999 SCT040CB 09/04 Q0990 R29/190060 NOSIG RMK QFE685/0914
過去の天気等 Google飛行場航空写真 Wunderground天気予報

過去48時間のMETAR

飛行場予報(TAF)
発表時間: 9/21 20:00 YAKT (9/21 11:00 UTC)
予報対象時間: 21日21時 YAKT ~ 22日21時 YAKT
風向・風速北北西 12m/s 瞬間風速 18m/s
視程5,000m
天気現象弱いしゅう雨
全天の4割程度の雲 雲底高度 210m
全天の8割程度の積乱雲 雲底高度 520m
21日21時 YAKT ~ 22日3時 YAKT に一時的に
天気現象弱い雷雨
22日3時 YAKT ~ 22日11時 YAKT に一時的に
風向・風速北西 6m/s 瞬間風速 12m/s
視程2,900m
天気現象弱いしゅう雨雪
全天の4割程度の雲 雲底高度 120m
全天の8割程度の積乱雲 雲底高度 400m
TAF UIAA 211100Z 2112/2212 34012G18MPS 5000 -SHRA SCT007 BKN017CB
TEMPO 2112/2118 -TSRA
TEMPO 2118/2202 32006G12MPS 2900 -SHRASN SCT004 BKN013CB